sensor_id;sensor_type;location;lat;lon;timestamp;temperature;humidity
8662;DHT22;29684;47.722;9.388;2023-04-22T00:01:26;9.70;99.90
8662;DHT22;29684;47.722;9.388;2023-04-22T00:04:11;9.60;99.90
8662;DHT22;29684;47.722;9.388;2023-04-22T00:06:55;9.50;99.90
8662;DHT22;29684;47.722;9.388;2023-04-22T00:09:40;9.50;99.90
8662;DHT22;29684;47.722;9.388;2023-04-22T00:12:25;9.40;99.90
8662;DHT22;29684;47.722;9.388;2023-04-22T00:15:09;9.40;99.90
8662;DHT22;29684;47.722;9.388;2023-04-22T00:17:53;9.40;99.90
8662;DHT22;29684;47.722;9.388;2023-04-22T00:20:37;9.40;99.90
8662;DHT22;29684;47.722;9.388;2023-04-22T00:23:22;9.40;99.90
8662;DHT22;29684;47.722;9.388;2023-04-22T00:26:06;9.30;99.90
8662;DHT22;29684;47.722;9.388;2023-04-22T00:28:50;9.20;99.90
8662;DHT22;29684;47.722;9.388;2023-04-22T00:31:34;9.30;99.90
8662;DHT22;29684;47.722;9.388;2023-04-22T00:34:18;9.30;99.90
8662;DHT22;29684;47.722;9.388;2023-04-22T00:37:02;9.40;99.90
8662;DHT22;29684;47.722;9.388;2023-04-22T00:39:46;9.50;99.90
8662;DHT22;29684;47.722;9.388;2023-04-22T00:42:31;9.50;99.90
8662;DHT22;29684;47.722;9.388;2023-04-22T00:45:16;9.40;99.90
8662;DHT22;29684;47.722;9.388;2023-04-22T00:48:02;9.40;99.90
8662;DHT22;29684;47.722;9.388;2023-04-22T00:50:46;9.50;99.90
8662;DHT22;29684;47.722;9.388;2023-04-22T00:53:31;9.50;99.90
8662;DHT22;29684;47.722;9.388;2023-04-22T00:56:16;9.40;99.90
8662;DHT22;29684;47.722;9.388;2023-04-22T00:59:01;9.50;99.90
8662;DHT22;29684;47.722;9.388;2023-04-22T01:01:45;9.50;99.90
8662;DHT22;29684;47.722;9.388;2023-04-22T01:04:29;9.50;99.90
8662;DHT22;29684;47.722;9.388;2023-04-22T01:07:14;9.40;99.90
8662;DHT22;29684;47.722;9.388;2023-04-22T01:09:58;9.30;99.90
8662;DHT22;29684;47.722;9.388;2023-04-22T01:12:42;9.30;99.90
8662;DHT22;29684;47.722;9.388;2023-04-22T01:15:26;9.30;99.90
8662;DHT22;29684;47.722;9.388;2023-04-22T01:18:11;9.20;99.90
8662;DHT22;29684;47.722;9.388;2023-04-22T01:20:56;9.30;99.90
8662;DHT22;29684;47.722;9.388;2023-04-22T01:23:41;9.30;99.90
8662;DHT22;29684;47.722;9.388;2023-04-22T01:26:25;9.10;99.90
8662;DHT22;29684;47.722;9.388;2023-04-22T01:29:10;8.80;99.90
8662;DHT22;29684;47.722;9.388;2023-04-22T01:31:55;8.70;99.90
8662;DHT22;29684;47.722;9.388;2023-04-22T01:34:39;8.60;99.90
8662;DHT22;29684;47.722;9.388;2023-04-22T01:37:23;8.50;99.90
8662;DHT22;29684;47.722;9.388;2023-04-22T01:40:08;8.40;99.90
8662;DHT22;29684;47.722;9.388;2023-04-22T01:42:53;8.40;99.90
8662;DHT22;29684;47.722;9.388;2023-04-22T01:45:37;8.40;99.90
8662;DHT22;29684;47.722;9.388;2023-04-22T01:48:22;8.50;99.90
8662;DHT22;29684;47.722;9.388;2023-04-22T01:51:06;8.50;99.90
8662;DHT22;29684;47.722;9.388;2023-04-22T01:53:50;8.60;99.90
8662;DHT22;29684;47.722;9.388;2023-04-22T01:56:35;8.40;99.90
8662;DHT22;29684;47.722;9.388;2023-04-22T01:59:21;8.50;99.90
8662;DHT22;29684;47.722;9.388;2023-04-22T02:02:05;8.40;99.90
8662;DHT22;29684;47.722;9.388;2023-04-22T02:04:49;8.30;99.90
8662;DHT22;29684;47.722;9.388;2023-04-22T02:07:33;8.20;99.90
8662;DHT22;29684;47.722;9.388;2023-04-22T02:10:19;8.20;99.90
8662;DHT22;29684;47.722;9.388;2023-04-22T02:13:03;8.20;99.90
8662;DHT22;29684;47.722;9.388;2023-04-22T02:15:49;8.30;99.90
8662;DHT22;29684;47.722;9.388;2023-04-22T02:18:39;8.30;99.90
8662;DHT22;29684;47.722;9.388;2023-04-22T02:21:24;8.40;99.90
8662;DHT22;29684;47.722;9.388;2023-04-22T02:24:09;8.40;99.90
8662;DHT22;29684;47.722;9.388;2023-04-22T02:26:53;8.50;99.90
8662;DHT22;29684;47.722;9.388;2023-04-22T02:29:37;8.50;99.90
8662;DHT22;29684;47.722;9.388;2023-04-22T02:32:22;8.50;99.90
8662;DHT22;29684;47.722;9.388;2023-04-22T02:35:06;8.40;99.90
8662;DHT22;29684;47.722;9.388;2023-04-22T02:37:51;8.20;99.90
8662;DHT22;29684;47.722;9.388;2023-04-22T02:40:36;8.20;99.90
8662;DHT22;29684;47.722;9.388;2023-04-22T02:43:20;8.30;99.90
8662;DHT22;29684;47.722;9.388;2023-04-22T02:46:04;8.10;99.90
8662;DHT22;29684;47.722;9.388;2023-04-22T02:48:48;8.10;99.90
8662;DHT22;29684;47.722;9.388;2023-04-22T02:51:33;8.00;99.90
8662;DHT22;29684;47.722;9.388;2023-04-22T02:54:18;7.90;99.90
8662;DHT22;29684;47.722;9.388;2023-04-22T02:57:02;8.00;99.90
8662;DHT22;29684;47.722;9.388;2023-04-22T02:59:46;7.90;99.90
8662;DHT22;29684;47.722;9.388;2023-04-22T03:02:30;7.90;99.90
8662;DHT22;29684;47.722;9.388;2023-04-22T03:05:15;7.90;99.90
8662;DHT22;29684;47.722;9.388;2023-04-22T03:07:59;8.00;99.90
8662;DHT22;29684;47.722;9.388;2023-04-22T03:10:43;7.90;99.90
8662;DHT22;29684;47.722;9.388;2023-04-22T03:13:27;7.80;99.90
8662;DHT22;29684;47.722;9.388;2023-04-22T03:16:12;7.80;99.90
8662;DHT22;29684;47.722;9.388;2023-04-22T03:18:56;7.60;99.90
8662;DHT22;29684;47.722;9.388;2023-04-22T03:21:40;7.80;99.90
8662;DHT22;29684;47.722;9.388;2023-04-22T03:24:24;7.60;99.90
8662;DHT22;29684;47.722;9.388;2023-04-22T03:27:09;7.50;99.90
8662;DHT22;29684;47.722;9.388;2023-04-22T03:29:54;7.60;99.90
8662;DHT22;29684;47.722;9.388;2023-04-22T03:32:38;7.70;99.90
8662;DHT22;29684;47.722;9.388;2023-04-22T03:35:22;7.60;99.90
8662;DHT22;29684;47.722;9.388;2023-04-22T03:38:06;7.50;99.90
8662;DHT22;29684;47.722;9.388;2023-04-22T03:40:51;7.50;99.90
8662;DHT22;29684;47.722;9.388;2023-04-22T03:43:35;7.40;99.90
8662;DHT22;29684;47.722;9.388;2023-04-22T03:46:20;7.30;99.90
8662;DHT22;29684;47.722;9.388;2023-04-22T03:49:04;7.30;99.90
8662;DHT22;29684;47.722;9.388;2023-04-22T03:51:49;7.20;99.90
8662;DHT22;29684;47.722;9.388;2023-04-22T03:54:33;7.20;99.90
8662;DHT22;29684;47.722;9.388;2023-04-22T03:57:17;7.30;99.90
8662;DHT22;29684;47.722;9.388;2023-04-22T04:00:01;7.30;99.90
8662;DHT22;29684;47.722;9.388;2023-04-22T04:02:45;7.10;99.90
8662;DHT22;29684;47.722;9.388;2023-04-22T04:05:29;7.00;99.90
8662;DHT22;29684;47.722;9.388;2023-04-22T04:08:13;7.20;99.90
8662;DHT22;29684;47.722;9.388;2023-04-22T04:10:57;7.20;99.90
8662;DHT22;29684;47.722;9.388;2023-04-22T04:13:41;7.20;99.90
8662;DHT22;29684;47.722;9.388;2023-04-22T04:16:25;7.30;99.90
8662;DHT22;29684;47.722;9.388;2023-04-22T04:19:10;7.20;99.90
8662;DHT22;29684;47.722;9.388;2023-04-22T04:21:54;7.30;99.90
8662;DHT22;29684;47.722;9.388;2023-04-22T04:24:38;7.20;99.90
8662;DHT22;29684;47.722;9.388;2023-04-22T04:27:24;7.20;99.90
8662;DHT22;29684;47.722;9.388;2023-04-22T04:30:10;7.10;99.90
8662;DHT22;29684;47.722;9.388;2023-04-22T04:32:54;7.00;99.90
8662;DHT22;29684;47.722;9.388;2023-04-22T04:35:41;7.00;99.90
8662;DHT22;29684;47.722;9.388;2023-04-22T04:38:26;7.00;99.90
8662;DHT22;29684;47.722;9.388;2023-04-22T04:41:10;6.90;99.90
8662;DHT22;29684;47.722;9.388;2023-04-22T04:43:54;6.90;99.90
8662;DHT22;29684;47.722;9.388;2023-04-22T04:46:39;7.00;99.90
8662;DHT22;29684;47.722;9.388;2023-04-22T04:49:23;7.00;99.90
8662;DHT22;29684;47.722;9.388;2023-04-22T04:52:08;7.10;99.90
8662;DHT22;29684;47.722;9.388;2023-04-22T04:54:54;7.20;99.90
8662;DHT22;29684;47.722;9.388;2023-04-22T04:57:39;7.10;99.90
8662;DHT22;29684;47.722;9.388;2023-04-22T05:00:23;7.10;99.90
8662;DHT22;29684;47.722;9.388;2023-04-22T05:03:08;7.00;99.90
8662;DHT22;29684;47.722;9.388;2023-04-22T05:05:52;6.90;99.90
8662;DHT22;29684;47.722;9.388;2023-04-22T05:08:37;7.00;99.90
8662;DHT22;29684;47.722;9.388;2023-04-22T05:11:21;7.20;99.90
8662;DHT22;29684;47.722;9.388;2023-04-22T05:14:05;7.30;99.90
8662;DHT22;29684;47.722;9.388;2023-04-22T05:16:49;7.30;99.90
8662;DHT22;29684;47.722;9.388;2023-04-22T05:19:33;7.50;99.90
8662;DHT22;29684;47.722;9.388;2023-04-22T05:22:18;7.50;99.90
8662;DHT22;29684;47.722;9.388;2023-04-22T05:25:03;7.40;99.90
8662;DHT22;29684;47.722;9.388;2023-04-22T05:27:47;7.30;99.90
8662;DHT22;29684;47.722;9.388;2023-04-22T05:30:31;7.40;99.90
8662;DHT22;29684;47.722;9.388;2023-04-22T05:33:15;7.40;99.90
8662;DHT22;29684;47.722;9.388;2023-04-22T05:35:59;7.40;99.90
8662;DHT22;29684;47.722;9.388;2023-04-22T05:38:44;7.50;99.90
8662;DHT22;29684;47.722;9.388;2023-04-22T05:41:28;7.60;99.90
8662;DHT22;29684;47.722;9.388;2023-04-22T05:44:12;7.80;99.90
8662;DHT22;29684;47.722;9.388;2023-04-22T05:46:56;8.00;99.90
8662;DHT22;29684;47.722;9.388;2023-04-22T05:49:40;8.10;99.90
8662;DHT22;29684;47.722;9.388;2023-04-22T05:52:24;8.20;99.90
8662;DHT22;29684;47.722;9.388;2023-04-22T05:55:08;8.40;99.90
8662;DHT22;29684;47.722;9.388;2023-04-22T05:57:52;8.70;99.90
8662;DHT22;29684;47.722;9.388;2023-04-22T06:00:36;8.90;99.90
8662;DHT22;29684;47.722;9.388;2023-04-22T06:03:20;9.00;99.90
8662;DHT22;29684;47.722;9.388;2023-04-22T06:06:05;9.20;99.90
8662;DHT22;29684;47.722;9.388;2023-04-22T06:08:49;9.20;99.90
8662;DHT22;29684;47.722;9.388;2023-04-22T06:11:33;9.30;99.90
8662;DHT22;29684;47.722;9.388;2023-04-22T06:14:18;9.50;99.90
8662;DHT22;29684;47.722;9.388;2023-04-22T06:17:02;9.60;99.90
8662;DHT22;29684;47.722;9.388;2023-04-22T06:19:46;9.60;99.90
8662;DHT22;29684;47.722;9.388;2023-04-22T06:22:30;9.90;99.90
8662;DHT22;29684;47.722;9.388;2023-04-22T06:25:14;10.10;99.90
8662;DHT22;29684;47.722;9.388;2023-04-22T06:27:58;10.30;99.90
8662;DHT22;29684;47.722;9.388;2023-04-22T06:30:42;10.40;99.90
8662;DHT22;29684;47.722;9.388;2023-04-22T06:33:26;10.70;99.90
8662;DHT22;29684;47.722;9.388;2023-04-22T06:36:12;10.90;99.90
8662;DHT22;29684;47.722;9.388;2023-04-22T06:38:56;11.00;99.90
8662;DHT22;29684;47.722;9.388;2023-04-22T06:41:40;11.00;99.90
8662;DHT22;29684;47.722;9.388;2023-04-22T06:44:28;11.10;99.90
8662;DHT22;29684;47.722;9.388;2023-04-22T06:47:12;11.10;99.90
8662;DHT22;29684;47.722;9.388;2023-04-22T06:49:57;11.20;99.90
8662;DHT22;29684;47.722;9.388;2023-04-22T06:52:41;11.30;99.90
8662;DHT22;29684;47.722;9.388;2023-04-22T06:55:25;11.30;99.90
8662;DHT22;29684;47.722;9.388;2023-04-22T06:58:09;11.40;99.90
8662;DHT22;29684;47.722;9.388;2023-04-22T07:00:53;11.40;99.90
8662;DHT22;29684;47.722;9.388;2023-04-22T07:03:37;11.50;99.90
8662;DHT22;29684;47.722;9.388;2023-04-22T07:06:21;11.60;99.90
8662;DHT22;29684;47.722;9.388;2023-04-22T07:09:05;11.70;99.90
8662;DHT22;29684;47.722;9.388;2023-04-22T07:11:50;11.70;99.90
8662;DHT22;29684;47.722;9.388;2023-04-22T07:14:34;11.70;99.90
8662;DHT22;29684;47.722;9.388;2023-04-22T07:17:18;11.70;99.90
8662;DHT22;29684;47.722;9.388;2023-04-22T07:20:05;11.70;99.90
8662;DHT22;29684;47.722;9.388;2023-04-22T07:22:51;11.60;99.90
8662;DHT22;29684;47.722;9.388;2023-04-22T07:25:35;11.70;99.90
8662;DHT22;29684;47.722;9.388;2023-04-22T07:28:19;11.80;99.90
8662;DHT22;29684;47.722;9.388;2023-04-22T07:31:04;12.00;99.90
8662;DHT22;29684;47.722;9.388;2023-04-22T07:33:47;12.20;99.90
8662;DHT22;29684;47.722;9.388;2023-04-22T07:36:32;12.20;99.90
8662;DHT22;29684;47.722;9.388;2023-04-22T07:39:16;12.50;99.90
8662;DHT22;29684;47.722;9.388;2023-04-22T07:42:01;12.60;99.90
8662;DHT22;29684;47.722;9.388;2023-04-22T07:44:46;12.60;99.90
8662;DHT22;29684;47.722;9.388;2023-04-22T07:47:30;12.50;99.90
8662;DHT22;29684;47.722;9.388;2023-04-22T07:50:14;12.40;99.90
8662;DHT22;29684;47.722;9.388;2023-04-22T07:52:58;12.40;99.90
8662;DHT22;29684;47.722;9.388;2023-04-22T07:55:43;12.40;99.90
8662;DHT22;29684;47.722;9.388;2023-04-22T07:58:28;12.30;99.90
8662;DHT22;29684;47.722;9.388;2023-04-22T08:01:12;12.20;99.90
8662;DHT22;29684;47.722;9.388;2023-04-22T08:03:56;12.50;99.90
8662;DHT22;29684;47.722;9.388;2023-04-22T08:06:40;12.70;99.90
8662;DHT22;29684;47.722;9.388;2023-04-22T08:09:24;12.70;99.90
8662;DHT22;29684;47.722;9.388;2023-04-22T08:12:09;12.70;99.90
8662;DHT22;29684;47.722;9.388;2023-04-22T08:14:53;12.90;99.90
8662;DHT22;29684;47.722;9.388;2023-04-22T08:17:37;13.00;99.90
8662;DHT22;29684;47.722;9.388;2023-04-22T08:20:21;13.30;99.90
8662;DHT22;29684;47.722;9.388;2023-04-22T08:23:06;13.60;99.90
8662;DHT22;29684;47.722;9.388;2023-04-22T08:25:50;13.60;99.90
8662;DHT22;29684;47.722;9.388;2023-04-22T08:28:35;13.50;99.90
8662;DHT22;29684;47.722;9.388;2023-04-22T08:31:19;13.50;99.90
8662;DHT22;29684;47.722;9.388;2023-04-22T08:34:04;13.50;99.90
8662;DHT22;29684;47.722;9.388;2023-04-22T08:36:48;13.60;99.90
8662;DHT22;29684;47.722;9.388;2023-04-22T08:39:32;13.60;99.90
8662;DHT22;29684;47.722;9.388;2023-04-22T08:42:18;13.70;99.90
8662;DHT22;29684;47.722;9.388;2023-04-22T08:45:03;13.70;99.90
8662;DHT22;29684;47.722;9.388;2023-04-22T08:47:48;13.80;99.90
8662;DHT22;29684;47.722;9.388;2023-04-22T08:50:33;14.00;99.90
8662;DHT22;29684;47.722;9.388;2023-04-22T08:53:22;14.20;99.90
8662;DHT22;29684;47.722;9.388;2023-04-22T08:56:06;14.30;99.90
8662;DHT22;29684;47.722;9.388;2023-04-22T08:58:51;14.50;99.90
8662;DHT22;29684;47.722;9.388;2023-04-22T09:01:39;14.40;99.90
8662;DHT22;29684;47.722;9.388;2023-04-22T09:04:24;14.60;99.90
8662;DHT22;29684;47.722;9.388;2023-04-22T09:07:09;14.80;99.90
8662;DHT22;29684;47.722;9.388;2023-04-22T09:09:55;14.90;99.90
8662;DHT22;29684;47.722;9.388;2023-04-22T09:12:40;14.90;99.90
8662;DHT22;29684;47.722;9.388;2023-04-22T09:15:25;15.00;99.90
8662;DHT22;29684;47.722;9.388;2023-04-22T09:18:10;15.00;99.90
8662;DHT22;29684;47.722;9.388;2023-04-22T09:20:58;15.20;99.90
8662;DHT22;29684;47.722;9.388;2023-04-22T09:23:52;15.30;99.90
8662;DHT22;29684;47.722;9.388;2023-04-22T09:26:41;15.50;99.90
8662;DHT22;29684;47.722;9.388;2023-04-22T09:29:29;15.30;99.90
8662;DHT22;29684;47.722;9.388;2023-04-22T09:32:14;15.10;99.90
8662;DHT22;29684;47.722;9.388;2023-04-22T09:35:00;15.30;99.90
8662;DHT22;29684;47.722;9.388;2023-04-22T09:37:50;15.50;99.90
8662;DHT22;29684;47.722;9.388;2023-04-22T09:40:37;15.50;99.90
8662;DHT22;29684;47.722;9.388;2023-04-22T09:43:21;15.70;99.90
8662;DHT22;29684;47.722;9.388;2023-04-22T09:46:05;15.70;99.90
8662;DHT22;29684;47.722;9.388;2023-04-22T09:48:51;15.80;99.90
8662;DHT22;29684;47.722;9.388;2023-04-22T09:51:39;16.00;99.90
8662;DHT22;29684;47.722;9.388;2023-04-22T09:54:25;15.90;99.90
8662;DHT22;29684;47.722;9.388;2023-04-22T09:57:09;16.00;99.90
8662;DHT22;29684;47.722;9.388;2023-04-22T09:59:58;16.00;99.90
8662;DHT22;29684;47.722;9.388;2023-04-22T10:02:43;16.20;99.90
8662;DHT22;29684;47.722;9.388;2023-04-22T10:05:27;16.40;99.90
8662;DHT22;29684;47.722;9.388;2023-04-22T10:08:14;16.50;99.90
8662;DHT22;29684;47.722;9.388;2023-04-22T10:10:59;17.10;99.90
8662;DHT22;29684;47.722;9.388;2023-04-22T10:13:43;16.90;99.90
8662;DHT22;29684;47.722;9.388;2023-04-22T10:16:30;17.00;99.90
8662;DHT22;29684;47.722;9.388;2023-04-22T10:19:23;17.00;99.90
8662;DHT22;29684;47.722;9.388;2023-04-22T10:22:09;17.20;99.90
8662;DHT22;29684;47.722;9.388;2023-04-22T10:24:54;17.30;99.90
8662;DHT22;29684;47.722;9.388;2023-04-22T10:27:41;17.50;99.90
8662;DHT22;29684;47.722;9.388;2023-04-22T10:30:30;17.70;99.90
8662;DHT22;29684;47.722;9.388;2023-04-22T10:41:50;17.30;99.90
8662;DHT22;29684;47.722;9.388;2023-04-22T10:47:36;18.00;99.90
8662;DHT22;29684;47.722;9.388;2023-04-22T10:50:25;18.00;99.90
8662;DHT22;29684;47.722;9.388;2023-04-22T10:53:35;18.40;99.90
8662;DHT22;29684;47.722;9.388;2023-04-22T10:56:20;18.30;99.90
8662;DHT22;29684;47.722;9.388;2023-04-22T10:59:15;18.40;99.90
8662;DHT22;29684;47.722;9.388;2023-04-22T11:02:01;18.60;99.90
8662;DHT22;29684;47.722;9.388;2023-04-22T11:04:46;18.80;99.90
8662;DHT22;29684;47.722;9.388;2023-04-22T11:07:30;19.00;99.90
8662;DHT22;29684;47.722;9.388;2023-04-22T11:10:37;19.20;99.90
8662;DHT22;29684;47.722;9.388;2023-04-22T11:13:25;19.20;99.90
8662;DHT22;29684;47.722;9.388;2023-04-22T11:16:09;19.20;99.90
8662;DHT22;29684;47.722;9.388;2023-04-22T11:18:54;19.40;99.90
8662;DHT22;29684;47.722;9.388;2023-04-22T11:21:39;19.50;99.90
8662;DHT22;29684;47.722;9.388;2023-04-22T11:24:23;19.40;99.90
8662;DHT22;29684;47.722;9.388;2023-04-22T11:27:07;19.70;99.90
8662;DHT22;29684;47.722;9.388;2023-04-22T11:30:05;20.30;99.90
8662;DHT22;29684;47.722;9.388;2023-04-22T11:32:57;20.00;99.90
8662;DHT22;29684;47.722;9.388;2023-04-22T11:35:42;20.00;99.90
8662;DHT22;29684;47.722;9.388;2023-04-22T11:38:27;20.10;99.90
8662;DHT22;29684;47.722;9.388;2023-04-22T11:41:12;20.00;99.90
8662;DHT22;29684;47.722;9.388;2023-04-22T11:43:56;19.70;99.90
8662;DHT22;29684;47.722;9.388;2023-04-22T11:46:43;19.90;99.90
8662;DHT22;29684;47.722;9.388;2023-04-22T11:49:27;20.00;99.90
8662;DHT22;29684;47.722;9.388;2023-04-22T11:52:15;20.00;99.90
8662;DHT22;29684;47.722;9.388;2023-04-22T11:54:59;20.00;99.90
8662;DHT22;29684;47.722;9.388;2023-04-22T11:57:44;20.50;99.90
8662;DHT22;29684;47.722;9.388;2023-04-22T12:00:31;20.40;99.90
8662;DHT22;29684;47.722;9.388;2023-04-22T12:03:22;20.60;99.90
8662;DHT22;29684;47.722;9.388;2023-04-22T12:06:07;20.30;99.90
8662;DHT22;29684;47.722;9.388;2023-04-22T12:08:51;20.90;99.90
8662;DHT22;29684;47.722;9.388;2023-04-22T12:11:38;21.40;99.90
8662;DHT22;29684;47.722;9.388;2023-04-22T12:14:48;21.40;99.90
8662;DHT22;29684;47.722;9.388;2023-04-22T12:17:33;21.10;99.90
8662;DHT22;29684;47.722;9.388;2023-04-22T12:20:17;20.90;99.90
8662;DHT22;29684;47.722;9.388;2023-04-22T12:23:02;21.40;99.90
8662;DHT22;29684;47.722;9.388;2023-04-22T12:25:47;21.70;99.90
8662;DHT22;29684;47.722;9.388;2023-04-22T12:28:31;21.20;99.90
8662;DHT22;29684;47.722;9.388;2023-04-22T12:31:16;21.50;99.90
8662;DHT22;29684;47.722;9.388;2023-04-22T12:34:00;21.30;99.90
8662;DHT22;29684;47.722;9.388;2023-04-22T12:36:45;21.60;99.90
8662;DHT22;29684;47.722;9.388;2023-04-22T12:39:30;22.10;99.90
8662;DHT22;29684;47.722;9.388;2023-04-22T12:42:15;22.10;99.90
8662;DHT22;29684;47.722;9.388;2023-04-22T12:44:59;22.10;99.90
8662;DHT22;29684;47.722;9.388;2023-04-22T12:47:43;21.90;99.90
8662;DHT22;29684;47.722;9.388;2023-04-22T12:50:28;21.80;99.40
8662;DHT22;29684;47.722;9.388;2023-04-22T12:53:12;22.50;99.50
8662;DHT22;29684;47.722;9.388;2023-04-22T12:55:56;22.50;99.90
8662;DHT22;29684;47.722;9.388;2023-04-22T12:58:41;23.20;99.30
8662;DHT22;29684;47.722;9.388;2023-04-22T13:01:25;23.50;97.70
8662;DHT22;29684;47.722;9.388;2023-04-22T13:04:09;23.90;97.10
8662;DHT22;29684;47.722;9.388;2023-04-22T13:06:55;23.40;97.30
8662;DHT22;29684;47.722;9.388;2023-04-22T13:09:40;23.30;96.30
8662;DHT22;29684;47.722;9.388;2023-04-22T13:12:24;23.50;96.60
8662;DHT22;29684;47.722;9.388;2023-04-22T13:15:09;23.80;97.30
8662;DHT22;29684;47.722;9.388;2023-04-22T13:17:54;23.30;97.00
8662;DHT22;29684;47.722;9.388;2023-04-22T13:20:38;23.30;97.50
8662;DHT22;29684;47.722;9.388;2023-04-22T13:23:24;23.20;98.00
8662;DHT22;29684;47.722;9.388;2023-04-22T13:26:10;24.40;97.00
8662;DHT22;29684;47.722;9.388;2023-04-22T13:28:55;23.90;95.60
8662;DHT22;29684;47.722;9.388;2023-04-22T13:31:42;23.20;96.50
8662;DHT22;29684;47.722;9.388;2023-04-22T13:34:29;22.50;94.20
8662;DHT22;29684;47.722;9.388;2023-04-22T13:37:13;22.70;96.50
8662;DHT22;29684;47.722;9.388;2023-04-22T13:39:59;22.90;98.40
8662;DHT22;29684;47.722;9.388;2023-04-22T13:42:43;23.30;99.30
8662;DHT22;29684;47.722;9.388;2023-04-22T13:45:27;23.40;98.20
8662;DHT22;29684;47.722;9.388;2023-04-22T13:48:12;23.30;97.00
8662;DHT22;29684;47.722;9.388;2023-04-22T13:50:56;22.80;97.60
8662;DHT22;29684;47.722;9.388;2023-04-22T13:53:40;23.70;96.80
8662;DHT22;29684;47.722;9.388;2023-04-22T13:56:24;23.50;97.40
8662;DHT22;29684;47.722;9.388;2023-04-22T13:59:09;23.20;97.90
8662;DHT22;29684;47.722;9.388;2023-04-22T14:01:56;22.50;98.40
8662;DHT22;29684;47.722;9.388;2023-04-22T14:04:40;23.00;98.60
8662;DHT22;29684;47.722;9.388;2023-04-22T14:07:24;23.60;97.60
8662;DHT22;29684;47.722;9.388;2023-04-22T14:10:10;23.90;97.80
8662;DHT22;29684;47.722;9.388;2023-04-22T14:12:56;24.70;97.20
8662;DHT22;29684;47.722;9.388;2023-04-22T14:15:41;24.00;96.30
8662;DHT22;29684;47.722;9.388;2023-04-22T14:18:25;23.70;96.00
8662;DHT22;29684;47.722;9.388;2023-04-22T14:21:11;23.90;96.10
8662;DHT22;29684;47.722;9.388;2023-04-22T14:23:55;23.40;95.00
8662;DHT22;29684;47.722;9.388;2023-04-22T14:26:39;22.60;94.20
8662;DHT22;29684;47.722;9.388;2023-04-22T14:29:23;22.20;94.70
8662;DHT22;29684;47.722;9.388;2023-04-22T14:32:08;21.90;94.90
8662;DHT22;29684;47.722;9.388;2023-04-22T14:34:52;21.80;94.80
8662;DHT22;29684;47.722;9.388;2023-04-22T14:37:36;21.80;94.90
8662;DHT22;29684;47.722;9.388;2023-04-22T14:40:20;21.40;95.30
8662;DHT22;29684;47.722;9.388;2023-04-22T14:43:08;21.20;96.50
8662;DHT22;29684;47.722;9.388;2023-04-22T14:45:52;21.00;95.90
8662;DHT22;29684;47.722;9.388;2023-04-22T14:48:36;20.80;96.20
8662;DHT22;29684;47.722;9.388;2023-04-22T14:51:22;20.80;96.70
8662;DHT22;29684;47.722;9.388;2023-04-22T14:54:06;20.70;96.90
8662;DHT22;29684;47.722;9.388;2023-04-22T14:56:50;20.80;97.10
8662;DHT22;29684;47.722;9.388;2023-04-22T14:59:37;20.60;96.80
8662;DHT22;29684;47.722;9.388;2023-04-22T15:02:21;20.50;98.00
8662;DHT22;29684;47.722;9.388;2023-04-22T15:05:05;20.50;98.00
8662;DHT22;29684;47.722;9.388;2023-04-22T15:07:50;20.30;97.40
8662;DHT22;29684;47.722;9.388;2023-04-22T15:10:34;20.30;97.70
8662;DHT22;29684;47.722;9.388;2023-04-22T15:13:19;20.20;98.30
8662;DHT22;29684;47.722;9.388;2023-04-22T15:16:03;20.10;98.50
8662;DHT22;29684;47.722;9.388;2023-04-22T15:18:48;20.00;98.30
8662;DHT22;29684;47.722;9.388;2023-04-22T15:21:32;19.90;98.70
8662;DHT22;29684;47.722;9.388;2023-04-22T15:24:17;19.80;99.60
8662;DHT22;29684;47.722;9.388;2023-04-22T15:27:03;19.80;99.90
8662;DHT22;29684;47.722;9.388;2023-04-22T15:29:47;19.60;99.90
8662;DHT22;29684;47.722;9.388;2023-04-22T15:32:31;19.60;99.90
8662;DHT22;29684;47.722;9.388;2023-04-22T15:35:16;19.40;99.90
8662;DHT22;29684;47.722;9.388;2023-04-22T15:38:01;19.10;99.90
8662;DHT22;29684;47.722;9.388;2023-04-22T15:40:45;19.00;99.90
8662;DHT22;29684;47.722;9.388;2023-04-22T15:43:30;18.90;99.90
8662;DHT22;29684;47.722;9.388;2023-04-22T15:46:14;18.80;99.90
8662;DHT22;29684;47.722;9.388;2023-04-22T15:48:59;18.50;99.90
8662;DHT22;29684;47.722;9.388;2023-04-22T15:51:43;18.20;99.90
8662;DHT22;29684;47.722;9.388;2023-04-22T15:54:28;17.80;99.90
8662;DHT22;29684;47.722;9.388;2023-04-22T15:57:12;17.40;99.90
8662;DHT22;29684;47.722;9.388;2023-04-22T15:59:56;17.10;99.90
8662;DHT22;29684;47.722;9.388;2023-04-22T16:02:41;17.10;99.90
8662;DHT22;29684;47.722;9.388;2023-04-22T16:05:25;17.10;99.90
8662;DHT22;29684;47.722;9.388;2023-04-22T16:08:10;17.10;99.90
8662;DHT22;29684;47.722;9.388;2023-04-22T16:10:56;17.10;99.90
8662;DHT22;29684;47.722;9.388;2023-04-22T16:13:41;17.10;99.90
8662;DHT22;29684;47.722;9.388;2023-04-22T16:16:26;17.10;99.90
8662;DHT22;29684;47.722;9.388;2023-04-22T16:19:10;17.10;99.90
8662;DHT22;29684;47.722;9.388;2023-04-22T16:22:01;17.10;99.90
8662;DHT22;29684;47.722;9.388;2023-04-22T16:24:45;17.00;99.90
8662;DHT22;29684;47.722;9.388;2023-04-22T16:27:29;16.90;99.90
8662;DHT22;29684;47.722;9.388;2023-04-22T16:30:14;16.90;99.90
8662;DHT22;29684;47.722;9.388;2023-04-22T16:32:58;16.80;99.90
8662;DHT22;29684;47.722;9.388;2023-04-22T16:35:42;16.70;99.90
8662;DHT22;29684;47.722;9.388;2023-04-22T16:38:27;16.80;99.90
8662;DHT22;29684;47.722;9.388;2023-04-22T16:41:13;16.80;99.90
8662;DHT22;29684;47.722;9.388;2023-04-22T16:44:01;16.70;99.90
8662;DHT22;29684;47.722;9.388;2023-04-22T16:46:45;16.60;99.90
8662;DHT22;29684;47.722;9.388;2023-04-22T16:49:29;16.50;99.90
8662;DHT22;29684;47.722;9.388;2023-04-22T16:52:14;16.60;99.90
8662;DHT22;29684;47.722;9.388;2023-04-22T16:54:58;16.50;99.90
8662;DHT22;29684;47.722;9.388;2023-04-22T16:57:43;16.40;99.90
8662;DHT22;29684;47.722;9.388;2023-04-22T17:00:30;16.40;99.90
8662;DHT22;29684;47.722;9.388;2023-04-22T17:03:14;16.40;99.90
8662;DHT22;29684;47.722;9.388;2023-04-22T17:05:59;16.30;99.90
8662;DHT22;29684;47.722;9.388;2023-04-22T17:08:43;16.20;99.90
8662;DHT22;29684;47.722;9.388;2023-04-22T17:11:27;16.20;99.90
8662;DHT22;29684;47.722;9.388;2023-04-22T17:14:14;16.10;99.90
8662;DHT22;29684;47.722;9.388;2023-04-22T17:16:59;16.20;99.90
8662;DHT22;29684;47.722;9.388;2023-04-22T17:19:43;16.10;99.90
8662;DHT22;29684;47.722;9.388;2023-04-22T17:22:27;16.00;99.90
8662;DHT22;29684;47.722;9.388;2023-04-22T17:25:11;16.00;99.90
8662;DHT22;29684;47.722;9.388;2023-04-22T17:27:56;16.00;99.90
8662;DHT22;29684;47.722;9.388;2023-04-22T17:30:41;15.90;99.90
8662;DHT22;29684;47.722;9.388;2023-04-22T17:33:25;15.90;99.90
8662;DHT22;29684;47.722;9.388;2023-04-22T17:36:09;15.80;99.90
8662;DHT22;29684;47.722;9.388;2023-04-22T17:38:54;15.80;99.90
8662;DHT22;29684;47.722;9.388;2023-04-22T17:41:38;15.80;99.90
8662;DHT22;29684;47.722;9.388;2023-04-22T17:44:23;15.70;99.90
8662;DHT22;29684;47.722;9.388;2023-04-22T17:47:08;15.60;99.90
8662;DHT22;29684;47.722;9.388;2023-04-22T17:49:52;15.60;99.90
8662;DHT22;29684;47.722;9.388;2023-04-22T17:52:37;15.50;99.90
8662;DHT22;29684;47.722;9.388;2023-04-22T17:55:21;15.50;99.90
8662;DHT22;29684;47.722;9.388;2023-04-22T17:58:05;15.50;99.90